Startpagina
METAR-TAF:

METAR-TAF

Vliegvelden :

Tiree, Schotland

breedte: 56-30N, lengte: 006-53W, hoogte: 12 m

Actueel weer

Dit bericht is 20 uur en het 38 minuten geleden gemaakt, om 14:50 UTC
Wind 9 kt uit het noordwesten
Temperatuur 8°C
Vochtigheid 81%
Druk 1028 hPa
Zicht 10 km of meer
Weinig wolken op 2300 ft

METAR: EGPU 201450Z 31009KT 9999 FEW023 08/05 Q1028

Tijdstip: 11:28 (11:28 UTC)

Verwachting

Dit bericht is 21 uur en het 35 minuten geleden gemaakt, om 13:53 UTC
Verwachting geldig van 20 om 15 UTC tot 20 om 19 UTC
Wind 12 kt uit het noordwesten
Zicht 10 km of meer
Weinig wolken op 4000 ft
Kans 30% :
Tijdelijke
van 20 om 15 UTC tot 20 om 19 UTC
Zicht: 8000 m
lichte regenbuien

TAF: EGPU 201353Z 2015/2019 32012KT 9999 FEW040 PROB30 TEMPO 2015/2019 8000 -SHRA

Waarnemingen en weersverwachtingen van meer dan 4000 vliegvelden (METAR en TAF).

De beschikbare stations zijn de gele en rode punten op de kaart.

Ga met uw muis naar het station om de naam te zien.

Klik dan om waarnemingen en weersverwachtingen te zien.

kaart wijzigen: klik op de groene knoppen met een zwart kruis om in te zoomen, op de groene knop met een streepje om uit te zoomen of op de groene pijlen voor aangrenzende kaarten.


METAR-TAF: